Time;durP1;ratioP1;P1;durP2;ratioP2;P2;SDS_P1;SDS_P2;PMS_P1;PMS_P2;Temp;Humidity;BMP_temperature;BMP_pressure;BME280_temperature;BME280_humidity;BME280_pressure;Samples;Min_cycle;Max_cycle;Signal;HPM_P1;HPM_P2
2023/07/29 00:01:21;;;;;;;2.13;0.80;;;17.90;99.90;;;17.48;100.00;97375.81;5004819;28;20547;-77
2023/07/29 00:03:49;;;;;;;2.63;1.10;;;17.80;99.90;;;17.48;100.00;97373.19;5000993;28;20054;-77
2023/07/29 00:06:16;;;;;;;3.13;0.90;;;17.90;99.90;;;17.53;100.00;97373.66;5007041;28;20050;-77
2023/07/29 00:08:43;;;;;;;1.77;0.80;;;17.90;99.90;;;17.61;100.00;97375.75;5006841;28;20104;-77
2023/07/29 00:11:10;;;;;;;2.60;0.80;;;17.90;99.90;;;17.59;100.00;97367.13;5005721;28;20041;-77
2023/07/29 00:13:37;;;;;;;2.65;0.80;;;17.90;99.90;;;17.69;100.00;97375.16;5007056;28;20507;-77
2023/07/29 00:16:06;;;;;;;4.00;1.23;;;17.90;99.90;;;17.62;100.00;97366.06;5003088;28;20481;-77
2023/07/29 00:18:33;;;;;;;1.98;0.93;;;18.00;99.90;;;17.70;100.00;97366.34;5009899;28;20402;-77
2023/07/29 00:21:00;;;;;;;2.50;0.68;;;18.00;99.90;;;17.80;100.00;97367.31;5006549;28;20057;-77
2023/07/29 00:23:27;;;;;;;1.67;0.70;;;18.00;99.90;;;17.75;100.00;97361.59;5009785;28;20124;-78
2023/07/29 00:25:54;;;;;;;2.05;0.70;;;18.00;99.90;;;17.85;100.00;97361.75;5008919;28;20535;-78
2023/07/29 00:28:21;;;;;;;3.10;0.80;;;18.10;99.90;;;17.93;100.00;97362.84;5000450;28;20065;-77
2023/07/29 00:30:49;;;;;;;3.30;0.90;;;18.10;99.90;;;17.88;100.00;97356.25;5005962;28;20058;-78
2023/07/29 00:33:17;;;;;;;1.77;0.70;;;18.20;99.90;;;17.97;100.00;97355.56;5009640;28;20417;-78
2023/07/29 00:35:44;;;;;;;2.75;0.75;;;18.30;99.90;;;17.91;100.00;97350.78;5008315;28;20107;-77
2023/07/29 00:38:11;;;;;;;4.68;0.70;;;18.30;99.90;;;17.87;100.00;97346.72;5005739;28;20050;-77
2023/07/29 00:40:38;;;;;;;2.13;0.80;;;18.30;99.90;;;17.93;100.00;97349.72;5010172;28;20065;-78
2023/07/29 00:43:06;;;;;;;0.98;0.60;;;18.30;99.90;;;17.96;100.00;97348.66;5008878;28;20552;-78
2023/07/29 00:45:36;;;;;;;2.22;0.90;;;18.30;99.90;;;18.00;100.00;97347.47;5008538;28;20069;-77
2023/07/29 00:48:04;;;;;;;2.08;0.90;;;18.30;99.90;;;17.95;100.00;97349.63;5004002;28;20046;-77
2023/07/29 00:50:32;;;;;;;2.40;0.80;;;18.30;99.90;;;17.91;100.00;97338.50;5007627;28;20057;-78
2023/07/29 00:52:59;;;;;;;2.72;0.70;;;18.30;99.90;;;18.02;100.00;97339.44;5008854;28;20507;-78
2023/07/29 00:55:26;;;;;;;1.63;0.90;;;18.30;99.90;;;17.94;100.00;97343.50;5008888;28;20048;-78
2023/07/29 00:57:54;;;;;;;2.40;0.88;;;18.40;99.90;;;18.05;100.00;97350.56;5002838;28;20050;-78
2023/07/29 01:00:22;;;;;;;4.57;1.25;;;18.30;99.90;;;17.95;100.00;97334.69;5008320;28;20049;-78
2023/07/29 01:02:49;;;;;;;2.88;0.90;;;18.30;99.90;;;17.95;100.00;97333.84;5006279;28;20054;-77
2023/07/29 01:05:18;;;;;;;5.43;0.85;;;18.40;99.90;;;17.96;100.00;97330.25;5006506;28;20564;-78
2023/07/29 01:08:00;;;;;;;7.90;0.98;;;18.40;99.90;;;17.94;100.00;97333.00;5007652;28;20506;-77
2023/07/29 01:10:49;;;;;;;1.73;0.90;;;18.30;99.90;;;17.93;100.00;97330.50;5001587;28;20042;-78
2023/07/29 01:13:22;;;;;;;1.52;0.90;;;18.30;99.90;;;17.90;100.00;97328.09;5004311;28;20593;-78
2023/07/29 01:16:17;;;;;;;3.58;0.90;;;18.30;99.90;;;17.91;100.00;97322.75;5008671;28;20049;-77
2023/07/29 01:18:47;;;;;;;3.30;0.98;;;18.30;99.90;;;18.03;100.00;97333.25;5007081;28;20077;-76
2023/07/29 01:21:17;;;;;;;1.60;0.80;;;18.30;99.90;;;17.94;100.00;97340.03;5007555;28;20061;-78
2023/07/29 01:23:44;;;;;;;2.65;0.80;;;18.30;99.90;;;17.96;100.00;97333.72;5004663;28;20050;-78
2023/07/29 01:26:11;;;;;;;2.70;0.98;;;18.30;99.90;;;18.03;100.00;97331.47;5005638;28;20077;-78
2023/07/29 01:28:39;;;;;;;1.95;0.80;;;18.40;99.90;;;17.99;100.00;97335.28;5004094;28;20065;-78
2023/07/29 01:31:25;;;;;;;4.20;0.98;;;18.40;99.90;;;18.02;100.00;97335.06;5005048;28;20129;-78
2023/07/29 01:34:10;;;;;;;2.72;1.00;;;18.40;99.90;;;18.10;100.00;97340.53;5006553;28;20084;-78
2023/07/29 01:36:41;;;;;;;3.17;0.90;;;18.40;99.90;;;18.03;100.00;97336.72;5006632;28;20127;-78
2023/07/29 01:39:11;;;;;;;;;;;18.40;99.90;;;18.06;100.00;97327.75;5006740;28;20413;-78
2023/07/29 01:41:39;;;;;;;1.98;0.93;;;18.50;99.90;;;18.04;100.00;97330.53;5005889;28;19998;-77
2023/07/29 01:44:07;;;;;;;2.63;0.82;;;18.40;99.90;;;18.10;100.00;97331.81;5003785;28;20368;-78
2023/07/29 01:46:34;;;;;;;1.65;0.90;;;18.50;99.90;;;18.04;100.00;97327.03;5005434;28;20050;-78
2023/07/29 01:49:01;;;;;;;1.80;0.90;;;18.40;99.90;;;18.02;100.00;97326.31;5008194;28;20046;-78
2023/07/29 01:51:28;;;;;;;5.55;1.45;;;18.50;99.90;;;18.00;100.00;97330.88;5006111;28;20503;-78
2023/07/29 01:53:56;;;;;;;2.42;1.00;;;18.40;99.90;;;18.03;100.00;97318.34;5004564;28;20139;-77
2023/07/29 01:56:24;;;;;;;2.15;0.90;;;18.50;99.90;;;18.07;100.00;97318.94;5008350;28;20078;-78
2023/07/29 01:58:51;;;;;;;4.32;0.88;;;18.50;99.90;;;18.06;100.00;97327.75;5006347;28;20475;-77
2023/07/29 02:01:18;;;;;;;3.58;1.00;;;18.40;99.90;;;17.93;100.00;97318.22;5009250;28;20496;-78
2023/07/29 02:03:45;;;;;;;3.80;0.90;;;18.50;99.90;;;17.89;100.00;97300.19;5006295;28;20483;-78
2023/07/29 02:06:12;;;;;;;5.22;1.00;;;18.40;99.90;;;17.83;100.00;97313.78;5006796;28;20411;-77
2023/07/29 02:08:40;;;;;;;8.23;1.05;;;18.40;99.90;;;17.82;100.00;97307.69;5007039;28;20057;-77
2023/07/29 02:11:08;;;;;;;2.53;1.05;;;18.30;99.90;;;17.87;100.00;97302.09;5006189;28;20567;-77
2023/07/29 02:13:35;;;;;;;4.15;1.05;;;18.30;99.90;;;17.84;100.00;97297.91;5005249;28;20062;-77
2023/07/29 02:16:02;;;;;;;4.00;0.90;;;18.30;99.90;;;17.80;100.00;97304.31;5006965;28;20123;-77
2023/07/29 02:18:29;;;;;;;3.60;1.10;;;18.30;99.90;;;17.86;100.00;97313.53;5007212;28;20464;-77
2023/07/29 02:20:56;;;;;;;2.58;1.00;;;18.30;99.90;;;17.78;100.00;97317.53;5006634;28;20168;-77
2023/07/29 02:23:24;;;;;;;3.05;0.98;;;18.20;99.90;;;17.80;100.00;97311.34;5006974;28;20646;-77
2023/07/29 02:25:51;;;;;;;3.22;1.10;;;18.20;99.90;;;17.75;100.00;97316.97;5002980;28;20060;-77
2023/07/29 02:28:18;;;;;;;3.30;1.20;;;18.20;99.90;;;17.77;100.00;97299.31;5005509;28;20049;-77
2023/07/29 02:30:46;;;;;;;3.63;1.33;;;18.20;99.90;;;17.77;100.00;97302.75;5007853;28;20050;-77
2023/07/29 02:33:15;;;;;;;2.33;1.00;;;18.20;99.90;;;17.80;100.00;97293.81;5005358;28;20060;-77
2023/07/29 02:35:43;;;;;;;1.98;1.13;;;18.20;99.90;;;17.82;100.00;97298.97;5007640;28;21922;-77
2023/07/29 02:38:10;;;;;;;2.05;1.20;;;18.20;99.90;;;17.84;100.00;97286.56;5008262;28;20050;-77
2023/07/29 02:40:38;;;;;;;1.50;0.90;;;18.20;99.90;;;17.83;100.00;97290.13;5003920;28;20073;-77
2023/07/29 02:43:05;;;;;;;3.90;1.20;;;18.20;99.90;;;17.79;100.00;97300.03;5007916;28;20745;-78
2023/07/29 02:45:32;;;;;;;4.43;1.33;;;18.20;99.90;;;17.74;100.00;97308.25;5009405;28;20050;-77
2023/07/29 02:47:59;;;;;;;3.35;1.10;;;18.20;99.90;;;17.81;100.00;97321.75;5009818;28;20050;-77
2023/07/29 02:50:27;;;;;;;4.07;1.45;;;18.20;99.90;;;17.82;100.00;97322.63;5005296;28;20096;-77
2023/07/29 02:52:54;;;;;;;4.72;1.30;;;18.20;99.90;;;17.89;100.00;97324.66;5011466;28;20078;-77
2023/07/29 02:55:21;;;;;;;2.05;1.10;;;18.30;99.90;;;17.93;100.00;97323.47;5012439;28;20406;-77
2023/07/29 02:57:48;;;;;;;2.22;1.20;;;18.30;99.90;;;17.95;100.00;97321.56;5010079;28;20054;-77
2023/07/29 03:00:15;;;;;;;1.83;0.90;;;18.30;99.90;;;18.10;100.00;97318.69;5007887;28;20050;-77
2023/07/29 03:02:42;;;;;;;5.20;1.08;;;18.30;99.90;;;18.12;100.00;97309.75;5005277;28;20061;-78
2023/07/29 03:05:09;;;;;;;2.83;1.20;;;18.40;99.90;;;18.00;100.00;97308.06;5012727;28;20441;-78
2023/07/29 03:07:36;;;;;;;2.47;1.02;;;18.40;99.90;;;18.04;100.00;97306.03;5011783;28;20472;-78
2023/07/29 03:10:04;;;;;;;1.75;1.02;;;18.40;99.90;;;18.04;100.00;97296.38;5003611;28;20046;-78
2023/07/29 03:12:31;;;;;;;3.88;1.20;;;18.40;99.90;;;18.11;100.00;97299.34;5008593;28;20120;-78
2023/07/29 03:15:00;;;;;;;2.10;1.10;;;18.40;99.90;;;18.02;100.00;97294.81;5009261;28;20112;-77
2023/07/29 03:17:27;;;;;;;3.35;1.05;;;18.40;99.90;;;18.04;100.00;97293.75;5012013;28;20467;-78
2023/07/29 03:19:54;;;;;;;2.72;1.33;;;18.40;99.90;;;18.19;100.00;97299.59;5009248;28;20054;-78
2023/07/29 03:22:27;;;;;;;2.40;0.90;;;18.40;99.90;;;18.31;100.00;97298.63;5010601;28;20100;-77
2023/07/29 03:24:54;;;;;;;2.28;1.05;;;18.50;99.90;;;18.25;100.00;97293.88;5011292;28;20100;-77
2023/07/29 03:27:21;;;;;;;1.98;1.17;;;18.50;99.90;;;18.16;100.00;97284.09;5010274;28;20159;-78
2023/07/29 03:29:48;;;;;;;2.65;1.30;;;18.50;99.90;;;18.12;100.00;97282.66;5008184;28;20089;-77
2023/07/29 03:32:15;;;;;;;3.42;1.20;;;18.50;99.90;;;18.10;100.00;97282.75;5011396;28;20104;-77
2023/07/29 03:34:42;;;;;;;2.92;1.15;;;18.50;99.90;;;18.15;100.00;97279.78;5009808;28;20133;-77
2023/07/29 03:37:10;;;;;;;4.00;1.67;;;18.60;99.90;;;18.06;100.00;97275.22;5011103;28;20046;-77
2023/07/29 03:39:37;;;;;;;2.67;1.02;;;18.50;99.90;;;18.09;100.00;97273.22;5007382;28;20050;-78
2023/07/29 03:42:04;;;;;;;5.53;1.40;;;18.50;99.90;;;18.17;100.00;97268.19;5006207;28;20131;-78
2023/07/29 03:44:32;;;;;;;3.78;1.70;;;18.50;99.90;;;18.12;100.00;97254.56;5005160;28;20077;-77
2023/07/29 03:46:59;;;;;;;2.40;1.15;;;18.50;99.90;;;18.06;100.00;97252.44;5009385;28;20041;-78
2023/07/29 03:49:26;;;;;;;1.90;1.13;;;18.50;99.90;;;18.15;100.00;97249.09;5008894;28;20038;-78
2023/07/29 03:51:53;;;;;;;4.28;1.60;;;18.50;99.90;;;18.03;100.00;97249.22;5007235;28;20076;-78
2023/07/29 03:54:20;;;;;;;3.10;1.30;;;18.40;99.90;;;18.02;100.00;97239.66;5009358;28;20050;-77
2023/07/29 03:56:47;;;;;;;6.85;1.33;;;18.40;99.90;;;17.92;100.00;97248.25;5007595;28;20107;-78
2023/07/29 03:59:14;;;;;;;3.97;1.40;;;18.40;99.90;;;17.83;100.00;97245.50;5009305;28;20112;-78
2023/07/29 04:01:41;;;;;;;6.85;1.50;;;18.40;99.90;;;17.75;100.00;97244.28;4989985;28;20074;-78
2023/07/29 04:04:09;;;;;;;5.10;1.70;;;18.30;99.90;;;17.72;100.00;97248.91;5007629;28;20095;-78
2023/07/29 04:06:36;;;;;;;4.35;1.70;;;18.20;99.90;;;17.73;100.00;97259.31;5010358;28;20077;-78
2023/07/29 04:09:03;;;;;;;5.15;1.55;;;18.20;99.90;;;17.69;100.00;97250.00;5007770;28;20044;-77
2023/07/29 04:11:30;;;;;;;2.95;1.50;;;18.20;99.90;;;17.75;100.00;97254.78;5009444;28;20045;-78
2023/07/29 04:13:57;;;;;;;6.25;1.67;;;18.20;99.90;;;17.73;100.00;97259.31;5007084;28;20485;-77
2023/07/29 04:16:24;;;;;;;4.35;1.60;;;18.20;99.90;;;17.73;100.00;97264.56;5009487;28;20508;-77
2023/07/29 04:18:52;;;;;;;2.92;1.55;;;18.20;99.90;;;17.75;100.00;97267.91;5000007;28;20141;-78
2023/07/29 04:21:19;;;;;;;3.40;1.52;;;18.20;99.90;;;17.74;100.00;97278.53;5005259;28;20539;-78
2023/07/29 04:23:46;;;;;;;3.95;1.60;;;18.20;99.90;;;17.75;100.00;97278.41;5008958;28;20058;-78
2023/07/29 04:26:13;;;;;;;5.38;1.95;;;18.20;99.90;;;17.81;100.00;97276.25;5009198;28;20045;-78
2023/07/29 04:28:40;;;;;;;4.78;1.83;;;18.20;99.90;;;17.86;100.00;97276.78;5009359;28;20111;-78
2023/07/29 04:31:07;;;;;;;3.05;2.08;;;18.30;99.90;;;17.90;100.00;97283.47;5009673;28;20054;-78
2023/07/29 04:33:34;;;;;;;4.63;2.25;;;18.30;99.90;;;17.89;100.00;97285.25;5008738;28;20053;-78
2023/07/29 04:36:04;;;;;;;5.03;1.80;;;18.30;99.90;;;17.93;100.00;97289.31;5006723;28;20410;-78
2023/07/29 04:38:33;;;;;;;2.42;1.70;;;18.30;99.90;;;17.97;100.00;97282.88;5009869;28;20046;-77
2023/07/29 04:41:01;;;;;;;2.83;1.52;;;18.30;99.90;;;18.05;100.00;97287.53;5008565;28;20054;-77
2023/07/29 04:43:32;;;;;;;7.65;2.10;;;18.30;99.90;;;18.06;100.00;97283.94;5007509;28;20432;-77
2023/07/29 04:45:59;;;;;;;2.50;1.70;;;18.40;99.90;;;18.14;100.00;97278.13;5008785;28;20046;-77
2023/07/29 04:48:29;;;;;;;4.90;1.92;;;18.40;99.90;;;18.09;100.00;97283.72;5009103;28;20076;-77
2023/07/29 04:50:57;;;;;;;4.28;2.13;;;18.40;99.90;;;18.14;100.00;97278.94;5005917;28;20088;-77
2023/07/29 04:53:24;;;;;;;10.25;2.17;;;18.40;99.90;;;18.17;100.00;97283.13;5010158;28;20054;-77
2023/07/29 04:55:51;;;;;;;2.17;1.50;;;18.50;99.90;;;18.22;100.00;97272.25;5005170;28;20053;-77
2023/07/29 04:58:18;;;;;;;4.15;2.25;;;18.50;99.90;;;18.28;100.00;97269.16;5007395;28;20061;-77
2023/07/29 05:00:47;;;;;;;5.35;1.90;;;18.50;99.90;;;18.23;100.00;97266.06;5009069;28;20050;-77
2023/07/29 05:03:14;;;;;;;6.05;2.03;;;18.60;99.90;;;18.14;100.00;97278.94;5003689;28;20521;-78
2023/07/29 05:05:41;;;;;;;4.78;2.13;;;18.60;99.90;;;18.18;100.00;97283.00;5008252;28;20057;-77
2023/07/29 05:08:08;;;;;;;5.47;2.47;;;18.50;99.90;;;18.10;100.00;97276.66;5006646;28;20108;-77
2023/07/29 05:10:35;;;;;;;5.47;2.22;;;18.50;99.90;;;18.19;100.00;97291.72;5006818;28;20046;-77
2023/07/29 05:13:02;;;;;;;4.35;2.00;;;18.50;99.90;;;18.25;100.00;97285.16;5008879;28;20054;-78
2023/07/29 05:15:30;;;;;;;6.25;2.60;;;18.50;99.90;;;18.16;100.00;97284.09;5011032;28;20053;-77
2023/07/29 05:17:57;;;;;;;4.70;2.78;;;18.50;99.90;;;18.18;100.00;97282.19;5010558;28;20054;-77
2023/07/29 05:20:24;;;;;;;8.60;3.28;;;18.50;99.90;;;18.13;100.00;97284.31;5007003;28;20229;-77
2023/07/29 05:22:51;;;;;;;5.13;2.70;;;18.50;99.90;;;18.22;100.00;97286.22;5009392;28;20099;-76
2023/07/29 05:25:18;;;;;;;6.63;3.45;;;18.50;99.90;;;18.15;100.00;97293.75;5006377;28;20508;-77
2023/07/29 05:27:45;;;;;;;6.50;4.45;;;18.50;99.90;;;18.17;100.00;97293.63;5007003;28;20497;-77
2023/07/29 05:30:12;;;;;;;7.03;4.18;;;18.50;99.90;;;18.18;100.00;97296.13;5007927;28;20124;-78
2023/07/29 05:32:39;;;;;;;6.32;3.63;;;18.50;99.90;;;18.26;100.00;97282.41;5002184;28;20053;-77
2023/07/29 05:35:07;;;;;;;6.07;2.78;;;18.50;99.90;;;18.27;100.00;97293.72;5005117;28;20046;-78
2023/07/29 05:37:34;;;;;;;4.93;3.60;;;18.50;99.90;;;18.23;100.00;97287.06;5005199;28;20315;-77
2023/07/29 05:40:01;;;;;;;3.67;2.58;;;18.50;99.90;;;18.40;100.00;97289.19;5008814;28;20104;-77
2023/07/29 05:42:28;;;;;;;7.88;2.85;;;18.60;99.90;;;18.34;100.00;97293.16;5007783;28;20046;-77
2023/07/29 05:44:55;;;;;;;6.35;2.58;;;18.60;99.90;;;18.39;100.00;97287.53;5003932;28;20085;-77
2023/07/29 05:47:22;;;;;;;6.03;2.60;;;18.60;99.90;;;18.34;100.00;97282.63;5006835;28;20053;-77
2023/07/29 05:49:52;;;;;;;6.82;2.72;;;18.50;99.90;;;18.35;100.00;97279.03;5007331;28;20103;-77
2023/07/29 05:52:19;;;;;;;5.43;2.67;;;18.60;99.90;;;18.42;100.00;97292.53;5004993;28;20042;-77
2023/07/29 05:54:46;;;;;;;4.70;2.15;;;18.60;99.90;;;18.53;100.00;97289.06;5008968;28;20054;-78
2023/07/29 05:57:14;;;;;;;4.50;2.42;;;18.60;99.90;;;18.46;100.00;97272.13;5008634;28;20055;-77
2023/07/29 05:59:41;;;;;;;4.30;2.35;;;18.60;99.90;;;18.49;100.00;97277.13;5007177;28;20614;-77
2023/07/29 06:02:08;;;;;;;5.55;2.15;;;18.70;99.90;;;18.59;100.00;97280.69;5006549;28;20563;-77
2023/07/29 06:04:35;;;;;;;3.00;2.08;;;18.70;99.90;;;18.66;100.00;97276.63;5007317;28;20057;-77
2023/07/29 06:07:02;;;;;;;5.95;2.20;;;18.80;99.90;;;18.63;100.00;97294.41;5007100;28;20046;-78
2023/07/29 06:09:29;;;;;;;2.90;2.38;;;18.80;99.90;;;18.60;100.00;97290.25;5000098;28;20489;-77
2023/07/29 06:11:56;;;;;;;3.33;1.70;;;18.90;99.90;;;18.70;100.00;97300.84;5004485;28;20476;-78
2023/07/29 06:14:24;;;;;;;3.42;1.60;;;18.80;99.90;;;18.71;100.00;97295.47;5007314;28;20112;-77
2023/07/29 06:16:51;;;;;;;6.25;2.28;;;18.80;99.90;;;18.78;100.00;97295.84;5005702;28;20096;-77
2023/07/29 06:19:20;;;;;;;2.20;1.60;;;18.80;99.90;;;18.80;100.00;97297.41;5003366;28;20455;-77
2023/07/29 06:21:48;;;;;;;3.83;1.83;;;18.80;99.90;;;18.76;100.00;97277.53;5002244;28;20054;-77
2023/07/29 06:24:18;;;;;;;4.18;2.05;;;18.90;99.90;;;18.84;100.00;97292.75;5010389;28;20512;-76
2023/07/29 06:26:45;;;;;;;3.92;2.00;;;18.90;99.90;;;18.68;100.00;97272.06;5006087;28;20057;-77
2023/07/29 06:29:12;;;;;;;3.03;2.08;;;18.90;99.90;;;18.73;100.00;97288.31;5006109;28;20090;-77
2023/07/29 06:31:39;;;;;;;3.88;1.88;;;19.00;99.90;;;18.93;100.00;97293.75;5008818;28;20406;-77
2023/07/29 06:34:06;;;;;;;7.63;1.98;;;19.00;99.90;;;19.02;100.00;97293.88;5010390;28;20081;-77
2023/07/29 06:36:33;;;;;;;4.07;1.73;;;19.10;99.90;;;19.24;100.00;97284.22;5010082;28;20076;-76
2023/07/29 06:39:01;;;;;;;6.88;2.03;;;19.30;99.90;;;19.28;100.00;97287.44;5005652;28;20046;-77
2023/07/29 06:41:28;;;;;;;3.35;1.20;;;19.40;99.90;;;19.54;100.00;97272.91;5006657;28;20468;-77
2023/07/29 06:43:55;;;;;;;2.85;1.48;;;19.50;99.90;;;19.39;100.00;97280.31;5009048;28;20509;-78
2023/07/29 06:46:22;;;;;;;5.60;1.45;;;19.50;99.90;;;19.33;100.00;97277.34;5010130;28;20050;-77
2023/07/29 06:48:49;;;;;;;3.67;1.45;;;19.50;99.90;;;19.32;100.00;97279.16;5009967;28;20056;-77
2023/07/29 06:51:16;;;;;;;3.28;1.25;;;19.50;99.90;;;19.29;100.00;97271.50;5008075;28;20113;-77
2023/07/29 06:53:43;;;;;;;3.90;1.42;;;19.50;99.90;;;19.18;100.00;97267.16;5009299;28;20756;-77
2023/07/29 06:56:10;;;;;;;9.40;1.58;;;19.50;99.90;;;19.21;100.00;97266.88;5007587;28;20065;-77
2023/07/29 06:58:37;;;;;;;7.15;1.50;;;19.50;99.90;;;19.15;100.00;97275.28;4991096;28;20112;-77
2023/07/29 07:01:04;;;;;;;4.63;1.33;;;19.50;99.90;;;19.19;100.00;97267.97;5004387;28;20045;-77
2023/07/29 07:03:31;;;;;;;3.05;1.45;;;19.40;99.90;;;19.18;100.00;97267.16;5009573;28;20046;-76
2023/07/29 07:05:59;;;;;;;4.05;1.90;;;19.40;99.90;;;19.05;100.00;97268.28;5006806;28;20131;-77
2023/07/29 07:08:26;;;;;;;4.03;1.77;;;19.40;99.90;;;19.03;100.00;97268.41;5006798;28;20519;-77
2023/07/29 07:10:53;;;;;;;2.92;1.30;;;19.30;99.90;;;19.14;100.00;97263.09;5009812;28;20081;-77
2023/07/29 07:13:20;;;;;;;4.65;1.38;;;19.20;99.90;;;18.98;100.00;97263.50;5006721;28;20137;-76
2023/07/29 07:15:47;;;;;;;5.10;1.50;;;19.20;99.90;;;18.90;100.00;97262.47;5007121;28;20493;-76
2023/07/29 07:18:15;;;;;;;3.25;1.40;;;19.20;99.90;;;19.11;100.00;97262.50;5006290;28;20508;-77
2023/07/29 07:20:42;;;;;;;3.72;1.30;;;19.20;99.90;;;19.33;100.00;97264.19;5007609;28;20505;-77
2023/07/29 07:23:11;;;;;;;3.25;1.23;;;19.20;99.90;;;19.43;100.00;97263.31;5006827;28;20186;-76
2023/07/29 07:25:39;;;;;;;4.63;1.10;;;19.20;99.90;;;19.51;100.00;97254.75;4992220;28;20425;-77
2023/07/29 07:28:06;;;;;;;3.35;1.20;;;19.40;99.90;;;19.55;100.00;97257.97;5001563;28;20050;-76
2023/07/29 07:30:33;;;;;;;7.40;2.13;;;19.50;99.90;;;19.38;100.00;97260.22;5006992;28;20108;-76
2023/07/29 07:33:01;;;;;;;2.40;1.30;;;19.50;99.90;;;19.38;100.00;97262.00;5005318;28;20042;-77
2023/07/29 07:35:30;;;;;;;2.28;0.80;;;19.60;99.90;;;19.27;100.00;97247.09;5002524;28;20049;-77
2023/07/29 07:37:59;;;;;;;2.92;0.80;;;19.70;99.90;;;19.51;100.00;97238.13;5008180;28;20067;-75
2023/07/29 07:40:26;;;;;;;2.33;0.80;;;19.70;99.90;;;19.54;100.00;97233.44;5009515;28;20053;-76
2023/07/29 07:42:53;;;;;;;2.90;0.90;;;19.70;99.90;;;19.48;100.00;97233.13;5007035;28;20511;-77
2023/07/29 07:45:20;;;;;;;3.75;0.80;;;19.70;99.90;;;19.37;100.00;97224.34;5009360;28;20050;-76
2023/07/29 07:47:47;;;;;;;4.03;0.80;;;19.70;99.90;;;19.61;100.00;97218.81;5005937;28;20050;-77
2023/07/29 07:50:15;;;;;;;1.92;0.80;;;19.70;99.90;;;19.23;100.00;97237.81;5009622;28;20046;-77
2023/07/29 07:52:42;;;;;;;2.05;0.77;;;19.60;99.90;;;19.25;100.00;97230.63;5010825;28;20112;-77
2023/07/29 07:55:09;;;;;;;1.80;0.93;;;19.40;99.90;;;19.16;100.00;97226.16;5007338;28;20128;-76
2023/07/29 07:57:36;;;;;;;3.55;0.85;;;19.40;99.90;;;19.18;100.00;97225.06;5007468;28;20057;-77
2023/07/29 08:00:04;;;;;;;1.10;0.70;;;19.50;99.90;;;19.75;100.00;97220.28;5003148;28;20057;-76
2023/07/29 08:02:31;;;;;;;3.42;1.02;;;19.60;99.90;;;19.97;100.00;97242.97;5006379;28;20092;-77
2023/07/29 08:04:58;;;;;;;8.05;0.90;;;19.90;99.90;;;19.82;100.00;97245.13;5007379;28;20054;-76
2023/07/29 08:07:25;;;;;;;3.83;0.82;;;20.00;99.90;;;19.61;100.00;97237.25;5006815;28;20049;-77
2023/07/29 08:09:52;;;;;;;1.63;0.90;;;20.00;99.90;;;19.32;100.00;97237.06;5006045;28;20079;-77
2023/07/29 08:12:20;;;;;;;3.90;1.15;;;19.80;99.90;;;19.47;100.00;97240.19;5009923;28;20092;-77
2023/07/29 08:14:47;;;;;;;3.70;1.30;;;19.60;99.90;;;19.44;100.00;97245.72;5009509;28;20057;-77
2023/07/29 08:17:14;;;;;;;3.03;1.17;;;19.60;99.90;;;19.60;100.00;97251.34;5003503;28;20493;-77
2023/07/29 08:19:41;;;;;;;3.95;1.45;;;19.70;99.90;;;19.57;100.00;97245.53;4996229;28;20465;-77
2023/07/29 08:22:08;;;;;;;9.77;1.23;;;19.70;99.90;;;19.96;100.00;97243.13;4992779;28;20120;-77
2023/07/29 08:24:35;;;;;;;1.65;1.00;;;19.80;99.90;;;20.54;100.00;97232.75;5001923;28;20104;-77
2023/07/29 08:27:02;;;;;;;3.22;1.10;;;20.10;99.90;;;20.62;100.00;97234.75;4997292;28;20053;-77
2023/07/29 08:29:29;;;;;;;4.15;1.02;;;20.30;99.90;;;20.14;100.00;97207.28;4997587;28;20069;-77
2023/07/29 08:31:56;;;;;;;4.63;1.20;;;20.20;99.90;;;19.91;100.00;97203.16;4997163;28;20461;-77
2023/07/29 08:34:23;;;;;;;3.92;1.10;;;20.20;99.90;;;20.27;100.00;97220.19;5007217;28;20559;-77
2023/07/29 08:36:50;;;;;;;2.38;0.90;;;20.10;99.90;;;21.04;100.00;97211.56;5001935;28;20516;-77
2023/07/29 08:39:18;;;;;;;1.95;0.80;;;20.40;99.90;;;21.67;100.00;97194.41;5005204;28;20057;-77
2023/07/29 08:41:54;;;;;;;2.90;0.80;;;20.80;99.90;;;22.27;100.00;97170.22;5000064;28;20056;-77
2023/07/29 08:44:24;;;;;;;3.28;1.20;;;21.20;99.90;;;21.80;100.00;97151.78;5002709;28;20060;-77
2023/07/29 08:46:51;;;;;;;3.90;1.00;;;21.50;99.90;;;23.13;100.00;97133.50;4999032;28;20049;-77
2023/07/29 08:49:23;;;;;;;3.67;0.80;;;22.00;99.90;;;22.82;100.00;97111.06;5002779;28;20112;-77
2023/07/29 08:51:53;;;;;;;1.75;1.10;;;22.60;99.90;;;23.53;100.00;97116.16;5001086;28;20050;-77
2023/07/29 08:54:20;;;;;;;2.30;0.80;;;22.80;99.90;;;23.66;100.00;97085.78;5005783;28;20057;-77
2023/07/29 08:56:48;;;;;;;4.32;0.80;;;23.30;99.90;;;22.71;100.00;97090.97;5003372;28;20467;-77
2023/07/29 08:59:17;;;;;;;7.22;1.05;;;23.10;99.90;;;22.47;100.00;97099.53;5007038;28;20519;-77
2023/07/29 09:01:44;;;;;;;3.33;0.80;;;23.30;99.90;;;22.09;100.00;97104.06;5007327;28;20056;-78
2023/07/29 09:04:11;;;;;;;2.83;0.90;;;22.60;99.90;;;22.65;100.00;97104.78;5001638;28;20152;-77
2023/07/29 09:06:39;;;;;;;4.50;0.80;;;22.40;99.90;;;21.98;100.00;97094.53;5004077;28;20746;-77
2023/07/29 09:09:08;;;;;;;5.28;0.95;;;22.50;99.90;;;22.64;100.00;97089.91;5004823;28;20065;-78
2023/07/29 09:11:39;;;;;;;2.72;0.80;;;23.20;99.90;;;23.47;100.00;97078.88;5003664;28;20489;-78
2023/07/29 09:14:10;;;;;;;3.57;0.80;;;24.20;99.90;;;23.86;100.00;97067.84;5004413;28;20046;-78
2023/07/29 09:16:38;;;;;;;1.13;0.73;;;24.40;99.90;;;24.24;100.00;97079.66;5005770;28;20045;-78
2023/07/29 09:19:05;;;;;;;3.97;0.70;;;24.00;99.90;;;24.19;100.00;97072.19;5001740;28;20136;-77
2023/07/29 09:21:33;;;;;;;4.63;0.80;;;24.10;99.90;;;23.85;100.00;97059.03;5009033;28;20049;-77
2023/07/29 09:24:04;;;;;;;1.30;0.70;;;24.40;99.90;;;24.28;100.00;97072.22;5002121;28;20112;-78
2023/07/29 09:26:32;;;;;;;2.95;0.70;;;24.70;99.90;;;24.17;100.00;97074.19;5006224;28;20061;-78
2023/07/29 09:29:00;;;;;;;3.72;0.80;;;24.70;99.90;;;24.04;100.00;97083.59;5002294;28;20073;-78
2023/07/29 09:31:29;;;;;;;4.18;0.70;;;24.80;99.90;;;24.45;100.00;97081.88;5003591;28;20096;-77
2023/07/29 09:34:03;;;;;;;4.88;0.98;;;25.10;99.90;;;24.20;100.00;97076.53;5005737;28;20050;-77
2023/07/29 09:36:33;;;;;;;2.75;0.80;;;25.20;99.90;;;24.46;100.00;97069.41;4998845;28;20046;-77
2023/07/29 09:39:01;;;;;;;3.97;0.60;;;25.30;99.90;;;24.84;100.00;97086.53;5008194;28;20539;-78
2023/07/29 09:41:32;;;;;;;1.90;0.70;;;25.20;99.90;;;24.83;100.00;97075.06;5005905;28;20188;-77
2023/07/29 09:44:02;;;;;;;4.38;1.17;;;25.40;99.90;;;24.24;100.00;97079.66;5002979;28;20054;-77
2023/07/29 09:46:36;;;;;;;2.63;0.90;;;25.30;99.90;;;23.47;100.00;97084.19;5010456;28;20053;-78
2023/07/29 09:49:07;;;;;;;4.50;0.73;;;24.20;99.90;;;23.45;100.00;97094.97;5009646;28;20108;-78
2023/07/29 09:51:41;;;;;;;2.58;0.95;;;24.40;99.90;;;23.63;100.00;97086.94;5010558;28;20389;-77
2023/07/29 09:54:10;;;;;;;2.60;0.80;;;24.10;99.90;;;23.56;100.00;97093.81;5002741;28;20046;-77
2023/07/29 09:56:45;;;;;;;1.40;0.77;;;23.50;99.90;;;23.04;100.00;97100.00;5008348;28;20417;-77
2023/07/29 09:59:12;;;;;;;1.77;0.68;;;23.30;99.90;;;22.60;100.00;97115.81;5012135;28;20073;-78
2023/07/29 10:01:41;;;;;;;1.35;0.80;;;23.00;99.90;;;22.49;100.00;97114.25;5010036;28;20060;-78
2023/07/29 10:04:10;;;;;;;3.13;0.85;;;22.40;99.90;;;23.64;100.00;97104.47;5011091;28;20432;-77
2023/07/29 10:06:42;;;;;;;2.67;1.10;;;23.10;99.90;;;24.17;100.00;97098.03;5009435;28;20045;-77
2023/07/29 10:09:12;;;;;;;2.22;0.95;;;24.10;99.90;;;24.28;100.00;97099.56;5003035;28;20046;-78
2023/07/29 10:11:41;;;;;;;2.85;0.90;;;25.00;99.90;;;24.52;100.00;97117.38;5012146;28;20104;-77
2023/07/29 10:14:09;;;;;;;3.58;0.85;;;24.90;99.90;;;24.74;100.00;97104.44;5010156;28;20050;-77
2023/07/29 10:16:37;;;;;;;3.08;0.90;;;25.60;99.90;;;24.33;100.00;97121.09;5009414;28;20406;-77